sensor_id;sensor_type;location;lat;lon;timestamp;temperature;humidity
44537;DHT22;30245;51.966;6.292;2024-02-26T00:02:15;12.00;54.80
44537;DHT22;30245;51.966;6.292;2024-02-26T00:04:41;12.00;54.80
44537;DHT22;30245;51.966;6.292;2024-02-26T00:07:07;12.00;54.80
44537;DHT22;30245;51.966;6.292;2024-02-26T00:09:33;12.00;54.80
44537;DHT22;30245;51.966;6.292;2024-02-26T00:12:01;12.00;54.80
44537;DHT22;30245;51.966;6.292;2024-02-26T00:14:29;12.00;54.80
44537;DHT22;30245;51.966;6.292;2024-02-26T00:16:55;12.00;54.70
44537;DHT22;30245;51.966;6.292;2024-02-26T00:19:20;12.00;54.70
44537;DHT22;30245;51.966;6.292;2024-02-26T00:21:46;12.00;54.80
44537;DHT22;30245;51.966;6.292;2024-02-26T00:24:12;12.00;54.90
44537;DHT22;30245;51.966;6.292;2024-02-26T00:26:37;11.90;54.90
44537;DHT22;30245;51.966;6.292;2024-02-26T00:29:03;11.90;55.10
44537;DHT22;30245;51.966;6.292;2024-02-26T00:31:28;11.90;55.10
44537;DHT22;30245;51.966;6.292;2024-02-26T00:33:54;11.90;55.20
44537;DHT22;30245;51.966;6.292;2024-02-26T00:36:19;11.90;55.30
44537;DHT22;30245;51.966;6.292;2024-02-26T00:38:45;11.90;55.30
44537;DHT22;30245;51.966;6.292;2024-02-26T00:41:19;11.90;55.30
44537;DHT22;30245;51.966;6.292;2024-02-26T00:43:45;11.80;55.20
44537;DHT22;30245;51.966;6.292;2024-02-26T00:46:10;11.80;55.20
44537;DHT22;30245;51.966;6.292;2024-02-26T00:48:36;11.90;55.20
44537;DHT22;30245;51.966;6.292;2024-02-26T00:51:03;11.90;55.20
44537;DHT22;30245;51.966;6.292;2024-02-26T00:53:31;11.80;55.30
44537;DHT22;30245;51.966;6.292;2024-02-26T00:55:57;11.80;55.40
44537;DHT22;30245;51.966;6.292;2024-02-26T00:58:24;11.80;55.60
44537;DHT22;30245;51.966;6.292;2024-02-26T01:00:50;11.80;55.70
44537;DHT22;30245;51.966;6.292;2024-02-26T01:03:16;11.80;55.70
44537;DHT22;30245;51.966;6.292;2024-02-26T01:05:42;11.80;55.70
44537;DHT22;30245;51.966;6.292;2024-02-26T01:08:07;11.80;55.70
44537;DHT22;30245;51.966;6.292;2024-02-26T01:10:33;11.80;55.70
44537;DHT22;30245;51.966;6.292;2024-02-26T01:12:59;11.80;55.60
44537;DHT22;30245;51.966;6.292;2024-02-26T01:15:25;11.90;55.50
44537;DHT22;30245;51.966;6.292;2024-02-26T01:17:51;11.90;55.40
44537;DHT22;30245;51.966;6.292;2024-02-26T01:20:17;11.90;55.20
44537;DHT22;30245;51.966;6.292;2024-02-26T01:22:43;11.90;55.10
44537;DHT22;30245;51.966;6.292;2024-02-26T01:25:09;11.90;55.10
44537;DHT22;30245;51.966;6.292;2024-02-26T01:27:35;11.90;55.10
44537;DHT22;30245;51.966;6.292;2024-02-26T01:30:03;12.00;55.00
44537;DHT22;30245;51.966;6.292;2024-02-26T01:32:29;11.90;54.90
44537;DHT22;30245;51.966;6.292;2024-02-26T01:34:55;11.90;54.90
44537;DHT22;30245;51.966;6.292;2024-02-26T01:37:21;12.00;54.90
44537;DHT22;30245;51.966;6.292;2024-02-26T01:39:46;11.90;55.00
44537;DHT22;30245;51.966;6.292;2024-02-26T01:42:12;11.80;55.20
44537;DHT22;30245;51.966;6.292;2024-02-26T01:44:37;11.80;55.30
44537;DHT22;30245;51.966;6.292;2024-02-26T01:47:04;11.80;55.30
44537;DHT22;30245;51.966;6.292;2024-02-26T01:49:30;11.80;55.50
44537;DHT22;30245;51.966;6.292;2024-02-26T01:51:56;11.70;55.60
44537;DHT22;30245;51.966;6.292;2024-02-26T01:54:23;11.70;55.70
44537;DHT22;30245;51.966;6.292;2024-02-26T01:56:49;11.60;55.60
44537;DHT22;30245;51.966;6.292;2024-02-26T01:59:15;11.70;55.60
44537;DHT22;30245;51.966;6.292;2024-02-26T02:01:44;11.70;55.50
44537;DHT22;30245;51.966;6.292;2024-02-26T02:04:11;11.70;55.30
44537;DHT22;30245;51.966;6.292;2024-02-26T02:06:38;11.70;55.30
44537;DHT22;30245;51.966;6.292;2024-02-26T02:09:03;11.80;55.20
44537;DHT22;30245;51.966;6.292;2024-02-26T02:11:33;11.80;55.10
44537;DHT22;30245;51.966;6.292;2024-02-26T02:13:59;11.80;55.00
44537;DHT22;30245;51.966;6.292;2024-02-26T02:16:25;11.80;55.00
44537;DHT22;30245;51.966;6.292;2024-02-26T02:18:50;11.80;55.00
44537;DHT22;30245;51.966;6.292;2024-02-26T02:21:16;11.80;54.90
44537;DHT22;30245;51.966;6.292;2024-02-26T02:23:42;11.80;55.10
44537;DHT22;30245;51.966;6.292;2024-02-26T02:26:14;11.80;55.10
44537;DHT22;30245;51.966;6.292;2024-02-26T02:28:41;11.80;55.10
44537;DHT22;30245;51.966;6.292;2024-02-26T02:31:07;11.80;55.20
44537;DHT22;30245;51.966;6.292;2024-02-26T02:33:33;11.70;55.20
44537;DHT22;30245;51.966;6.292;2024-02-26T02:35:59;11.70;55.30
44537;DHT22;30245;51.966;6.292;2024-02-26T02:38:25;11.80;55.30
44537;DHT22;30245;51.966;6.292;2024-02-26T02:40:54;11.70;55.30
44537;DHT22;30245;51.966;6.292;2024-02-26T02:43:19;11.70;55.40
44537;DHT22;30245;51.966;6.292;2024-02-26T02:45:45;11.80;55.50
44537;DHT22;30245;51.966;6.292;2024-02-26T02:48:11;11.70;55.50
44537;DHT22;30245;51.966;6.292;2024-02-26T02:50:37;11.70;55.60
44537;DHT22;30245;51.966;6.292;2024-02-26T02:53:02;11.80;55.50
44537;DHT22;30245;51.966;6.292;2024-02-26T02:55:28;11.80;55.40
44537;DHT22;30245;51.966;6.292;2024-02-26T02:57:54;11.90;55.30
44537;DHT22;30245;51.966;6.292;2024-02-26T03:00:19;11.90;55.20
44537;DHT22;30245;51.966;6.292;2024-02-26T03:02:45;11.90;55.80
44537;DHT22;30245;51.966;6.292;2024-02-26T03:05:11;11.90;55.20
44537;DHT22;30245;51.966;6.292;2024-02-26T03:07:37;11.90;55.20
44537;DHT22;30245;51.966;6.292;2024-02-26T03:10:03;11.90;55.30
44537;DHT22;30245;51.966;6.292;2024-02-26T03:12:30;11.90;55.30
44537;DHT22;30245;51.966;6.292;2024-02-26T03:14:56;11.90;55.40
44537;DHT22;30245;51.966;6.292;2024-02-26T03:17:21;11.90;55.50
44537;DHT22;30245;51.966;6.292;2024-02-26T03:19:49;11.90;55.50
44537;DHT22;30245;51.966;6.292;2024-02-26T03:22:18;11.90;55.40
44537;DHT22;30245;51.966;6.292;2024-02-26T03:24:44;12.00;55.40
44537;DHT22;30245;51.966;6.292;2024-02-26T03:27:09;12.00;55.30
44537;DHT22;30245;51.966;6.292;2024-02-26T03:29:36;12.00;55.30
44537;DHT22;30245;51.966;6.292;2024-02-26T03:32:02;12.00;55.30
44537;DHT22;30245;51.966;6.292;2024-02-26T03:34:28;11.90;55.30
44537;DHT22;30245;51.966;6.292;2024-02-26T03:36:53;11.90;55.50
44537;DHT22;30245;51.966;6.292;2024-02-26T03:39:19;11.90;55.60
44537;DHT22;30245;51.966;6.292;2024-02-26T03:41:45;11.90;55.70
44537;DHT22;30245;51.966;6.292;2024-02-26T03:44:10;11.80;55.70
44537;DHT22;30245;51.966;6.292;2024-02-26T03:46:36;11.90;55.50
44537;DHT22;30245;51.966;6.292;2024-02-26T03:49:01;11.90;55.40
44537;DHT22;30245;51.966;6.292;2024-02-26T03:51:27;11.90;55.20
44537;DHT22;30245;51.966;6.292;2024-02-26T03:53:59;11.90;55.10
44537;DHT22;30245;51.966;6.292;2024-02-26T03:56:26;11.90;55.00
44537;DHT22;30245;51.966;6.292;2024-02-26T03:58:51;11.90;55.00
44537;DHT22;30245;51.966;6.292;2024-02-26T04:01:17;11.90;55.00
44537;DHT22;30245;51.966;6.292;2024-02-26T04:03:42;11.90;55.10
44537;DHT22;30245;51.966;6.292;2024-02-26T04:06:09;11.90;55.20
44537;DHT22;30245;51.966;6.292;2024-02-26T04:08:36;11.90;55.20
44537;DHT22;30245;51.966;6.292;2024-02-26T04:11:02;12.00;55.20
44537;DHT22;30245;51.966;6.292;2024-02-26T04:13:32;12.00;55.20
44537;DHT22;30245;51.966;6.292;2024-02-26T04:15:58;12.00;55.10
44537;DHT22;30245;51.966;6.292;2024-02-26T04:18:26;12.00;55.00
44537;DHT22;30245;51.966;6.292;2024-02-26T04:20:52;12.10;55.00
44537;DHT22;30245;51.966;6.292;2024-02-26T04:23:17;12.10;55.00
44537;DHT22;30245;51.966;6.292;2024-02-26T04:25:43;12.00;54.90
44537;DHT22;30245;51.966;6.292;2024-02-26T04:28:09;12.00;54.80
44537;DHT22;30245;51.966;6.292;2024-02-26T04:30:34;12.00;54.80
44537;DHT22;30245;51.966;6.292;2024-02-26T04:33:00;12.00;54.90
44537;DHT22;30245;51.966;6.292;2024-02-26T04:35:25;12.00;54.90
44537;DHT22;30245;51.966;6.292;2024-02-26T04:37:51;12.00;54.90
44537;DHT22;30245;51.966;6.292;2024-02-26T04:40:16;12.00;55.00
44537;DHT22;30245;51.966;6.292;2024-02-26T04:42:42;11.90;55.20
44537;DHT22;30245;51.966;6.292;2024-02-26T04:45:08;11.90;55.60
44537;DHT22;30245;51.966;6.292;2024-02-26T04:47:34;11.80;55.60
44537;DHT22;30245;51.966;6.292;2024-02-26T04:49:59;11.80;55.50
44537;DHT22;30245;51.966;6.292;2024-02-26T04:52:25;11.80;55.60
44537;DHT22;30245;51.966;6.292;2024-02-26T04:54:51;11.80;55.80
44537;DHT22;30245;51.966;6.292;2024-02-26T04:57:17;11.80;55.80
44537;DHT22;30245;51.966;6.292;2024-02-26T04:59:44;11.80;55.80
44537;DHT22;30245;51.966;6.292;2024-02-26T05:02:11;11.80;55.90
44537;DHT22;30245;51.966;6.292;2024-02-26T05:04:37;11.80;55.90
44537;DHT22;30245;51.966;6.292;2024-02-26T05:07:02;11.90;56.00
44537;DHT22;30245;51.966;6.292;2024-02-26T05:09:29;11.90;56.00
44537;DHT22;30245;51.966;6.292;2024-02-26T05:11:54;11.90;56.00
44537;DHT22;30245;51.966;6.292;2024-02-26T05:14:20;11.80;56.00
44537;DHT22;30245;51.966;6.292;2024-02-26T05:16:46;11.80;56.20
44537;DHT22;30245;51.966;6.292;2024-02-26T05:19:12;11.80;56.50
44537;DHT22;30245;51.966;6.292;2024-02-26T05:21:37;11.70;56.70
44537;DHT22;30245;51.966;6.292;2024-02-26T05:24:03;11.70;56.90
44537;DHT22;30245;51.966;6.292;2024-02-26T05:26:29;11.70;56.90
44537;DHT22;30245;51.966;6.292;2024-02-26T05:28:54;11.70;57.00
44537;DHT22;30245;51.966;6.292;2024-02-26T05:31:25;11.60;57.00
44537;DHT22;30245;51.966;6.292;2024-02-26T05:33:50;11.60;57.10
44537;DHT22;30245;51.966;6.292;2024-02-26T05:36:20;11.60;57.30
44537;DHT22;30245;51.966;6.292;2024-02-26T05:38:47;11.60;57.50
44537;DHT22;30245;51.966;6.292;2024-02-26T05:41:17;11.60;57.50
44537;DHT22;30245;51.966;6.292;2024-02-26T05:43:49;11.60;57.40
44537;DHT22;30245;51.966;6.292;2024-02-26T05:46:17;11.60;57.50
44537;DHT22;30245;51.966;6.292;2024-02-26T05:48:43;11.50;57.60
44537;DHT22;30245;51.966;6.292;2024-02-26T05:51:09;11.50;57.70
44537;DHT22;30245;51.966;6.292;2024-02-26T05:53:35;11.50;57.80
44537;DHT22;30245;51.966;6.292;2024-02-26T05:56:00;11.50;57.80
44537;DHT22;30245;51.966;6.292;2024-02-26T05:58:26;11.50;58.00
44537;DHT22;30245;51.966;6.292;2024-02-26T06:00:51;11.40;58.20
44537;DHT22;30245;51.966;6.292;2024-02-26T06:03:17;11.40;58.30
44537;DHT22;30245;51.966;6.292;2024-02-26T06:05:42;11.30;58.40
44537;DHT22;30245;51.966;6.292;2024-02-26T06:08:08;11.40;58.50
44537;DHT22;30245;51.966;6.292;2024-02-26T06:10:34;11.40;58.40
44537;DHT22;30245;51.966;6.292;2024-02-26T06:13:00;11.40;58.40
44537;DHT22;30245;51.966;6.292;2024-02-26T06:15:25;11.40;58.50
44537;DHT22;30245;51.966;6.292;2024-02-26T06:17:51;11.40;58.50
44537;DHT22;30245;51.966;6.292;2024-02-26T06:20:16;11.40;58.60
44537;DHT22;30245;51.966;6.292;2024-02-26T06:22:42;11.40;58.60
44537;DHT22;30245;51.966;6.292;2024-02-26T06:25:08;11.30;58.60
44537;DHT22;30245;51.966;6.292;2024-02-26T06:27:34;11.30;58.70
44537;DHT22;30245;51.966;6.292;2024-02-26T06:30:00;11.40;58.80
44537;DHT22;30245;51.966;6.292;2024-02-26T06:32:26;11.40;58.80
44537;DHT22;30245;51.966;6.292;2024-02-26T06:34:54;11.40;58.80
44537;DHT22;30245;51.966;6.292;2024-02-26T06:37:19;11.40;58.80
44537;DHT22;30245;51.966;6.292;2024-02-26T06:39:45;11.40;58.90
44537;DHT22;30245;51.966;6.292;2024-02-26T06:42:11;11.30;59.60
44537;DHT22;30245;51.966;6.292;2024-02-26T06:44:36;11.40;59.10
44537;DHT22;30245;51.966;6.292;2024-02-26T06:47:02;11.40;59.10
44537;DHT22;30245;51.966;6.292;2024-02-26T06:49:28;11.40;59.10
44537;DHT22;30245;51.966;6.292;2024-02-26T06:51:54;11.30;59.10
44537;DHT22;30245;51.966;6.292;2024-02-26T06:54:19;11.30;59.10
44537;DHT22;30245;51.966;6.292;2024-02-26T06:56:45;11.30;59.10
44537;DHT22;30245;51.966;6.292;2024-02-26T06:59:11;11.30;59.10
44537;DHT22;30245;51.966;6.292;2024-02-26T07:01:37;11.30;59.20
44537;DHT22;30245;51.966;6.292;2024-02-26T07:04:02;11.30;59.20
44537;DHT22;30245;51.966;6.292;2024-02-26T07:06:28;11.40;59.20
44537;DHT22;30245;51.966;6.292;2024-02-26T07:08:53;11.40;59.10
44537;DHT22;30245;51.966;6.292;2024-02-26T07:11:19;11.40;59.10
44537;DHT22;30245;51.966;6.292;2024-02-26T07:13:46;11.40;59.20
44537;DHT22;30245;51.966;6.292;2024-02-26T07:16:11;11.30;59.20
44537;DHT22;30245;51.966;6.292;2024-02-26T07:18:40;11.40;59.20
44537;DHT22;30245;51.966;6.292;2024-02-26T07:21:06;11.40;59.20
44537;DHT22;30245;51.966;6.292;2024-02-26T07:23:32;11.40;59.20
44537;DHT22;30245;51.966;6.292;2024-02-26T07:25:57;11.40;59.10
44537;DHT22;30245;51.966;6.292;2024-02-26T07:28:24;11.40;59.20
44537;DHT22;30245;51.966;6.292;2024-02-26T07:30:49;11.30;59.30
44537;DHT22;30245;51.966;6.292;2024-02-26T07:33:15;11.40;59.40
44537;DHT22;30245;51.966;6.292;2024-02-26T07:35:40;11.40;59.30
44537;DHT22;30245;51.966;6.292;2024-02-26T07:38:06;11.50;59.30
44537;DHT22;30245;51.966;6.292;2024-02-26T07:40:31;11.50;59.10
44537;DHT22;30245;51.966;6.292;2024-02-26T07:42:57;11.60;59.10
44537;DHT22;30245;51.966;6.292;2024-02-26T07:45:23;11.60;59.00
44537;DHT22;30245;51.966;6.292;2024-02-26T07:47:48;11.60;58.90
44537;DHT22;30245;51.966;6.292;2024-02-26T07:50:14;11.60;59.60
44537;DHT22;30245;51.966;6.292;2024-02-26T07:52:40;11.60;59.10
44537;DHT22;30245;51.966;6.292;2024-02-26T07:55:06;11.50;59.20
44537;DHT22;30245;51.966;6.292;2024-02-26T07:57:34;11.60;59.30
44537;DHT22;30245;51.966;6.292;2024-02-26T08:00:01;11.60;59.40
44537;DHT22;30245;51.966;6.292;2024-02-26T08:02:27;11.70;59.30
44537;DHT22;30245;51.966;6.292;2024-02-26T08:04:52;11.70;59.10
44537;DHT22;30245;51.966;6.292;2024-02-26T08:07:18;11.60;59.10
44537;DHT22;30245;51.966;6.292;2024-02-26T08:09:44;11.70;59.10
44537;DHT22;30245;51.966;6.292;2024-02-26T08:12:09;11.70;59.70
44537;DHT22;30245;51.966;6.292;2024-02-26T08:14:35;11.70;59.20
44537;DHT22;30245;51.966;6.292;2024-02-26T08:17:00;11.60;59.20
44537;DHT22;30245;51.966;6.292;2024-02-26T08:19:26;11.70;59.30
44537;DHT22;30245;51.966;6.292;2024-02-26T08:21:52;11.60;59.30
44537;DHT22;30245;51.966;6.292;2024-02-26T08:24:18;11.60;59.40
44537;DHT22;30245;51.966;6.292;2024-02-26T08:26:43;11.60;59.50
44537;DHT22;30245;51.966;6.292;2024-02-26T08:29:09;11.60;59.70
44537;DHT22;30245;51.966;6.292;2024-02-26T08:31:34;11.50;59.80
44537;DHT22;30245;51.966;6.292;2024-02-26T08:34:03;11.50;59.90
44537;DHT22;30245;51.966;6.292;2024-02-26T08:36:30;11.50;60.00
44537;DHT22;30245;51.966;6.292;2024-02-26T08:38:55;11.50;60.10
44537;DHT22;30245;51.966;6.292;2024-02-26T08:41:21;11.50;60.20
44537;DHT22;30245;51.966;6.292;2024-02-26T08:43:46;11.50;60.20
44537;DHT22;30245;51.966;6.292;2024-02-26T08:46:15;11.50;60.10
44537;DHT22;30245;51.966;6.292;2024-02-26T08:48:40;11.50;60.30
44537;DHT22;30245;51.966;6.292;2024-02-26T08:51:07;11.50;60.30
44537;DHT22;30245;51.966;6.292;2024-02-26T08:53:33;11.60;60.40
44537;DHT22;30245;51.966;6.292;2024-02-26T08:55:58;11.50;60.30
44537;DHT22;30245;51.966;6.292;2024-02-26T08:58:24;11.50;60.50
44537;DHT22;30245;51.966;6.292;2024-02-26T09:00:49;11.50;60.60
44537;DHT22;30245;51.966;6.292;2024-02-26T09:03:15;11.50;60.70
44537;DHT22;30245;51.966;6.292;2024-02-26T09:05:41;11.50;60.80
44537;DHT22;30245;51.966;6.292;2024-02-26T09:08:06;11.50;60.70
44537;DHT22;30245;51.966;6.292;2024-02-26T09:10:32;11.50;60.80
44537;DHT22;30245;51.966;6.292;2024-02-26T09:12:58;11.50;60.90
44537;DHT22;30245;51.966;6.292;2024-02-26T09:15:24;11.60;60.80
44537;DHT22;30245;51.966;6.292;2024-02-26T09:17:49;11.60;60.70
44537;DHT22;30245;51.966;6.292;2024-02-26T09:20:16;11.60;60.60
44537;DHT22;30245;51.966;6.292;2024-02-26T09:22:45;11.70;60.80
44537;DHT22;30245;51.966;6.292;2024-02-26T09:25:11;11.70;60.70
44537;DHT22;30245;51.966;6.292;2024-02-26T09:27:37;11.70;60.80
44537;DHT22;30245;51.966;6.292;2024-02-26T09:30:03;11.80;60.80
44537;DHT22;30245;51.966;6.292;2024-02-26T09:32:30;11.90;60.60
44537;DHT22;30245;51.966;6.292;2024-02-26T09:34:55;12.00;60.40
44537;DHT22;30245;51.966;6.292;2024-02-26T09:37:21;12.00;60.40
44537;DHT22;30245;51.966;6.292;2024-02-26T09:39:47;12.00;60.40
44537;DHT22;30245;51.966;6.292;2024-02-26T09:42:13;12.00;60.40
44537;DHT22;30245;51.966;6.292;2024-02-26T09:44:40;12.00;60.40
44537;DHT22;30245;51.966;6.292;2024-02-26T09:47:09;12.00;60.40
44537;DHT22;30245;51.966;6.292;2024-02-26T09:49:36;12.00;60.20
44537;DHT22;30245;51.966;6.292;2024-02-26T09:52:03;12.10;60.10
44537;DHT22;30245;51.966;6.292;2024-02-26T09:54:30;12.10;60.30
44537;DHT22;30245;51.966;6.292;2024-02-26T09:57:00;12.10;60.40
44537;DHT22;30245;51.966;6.292;2024-02-26T09:59:27;12.10;60.40
44537;DHT22;30245;51.966;6.292;2024-02-26T10:01:54;12.10;60.50
44537;DHT22;30245;51.966;6.292;2024-02-26T10:04:21;12.10;60.60
44537;DHT22;30245;51.966;6.292;2024-02-26T10:06:47;12.10;60.50
44537;DHT22;30245;51.966;6.292;2024-02-26T10:09:14;12.10;60.40
44537;DHT22;30245;51.966;6.292;2024-02-26T10:11:41;12.10;60.30
44537;DHT22;30245;51.966;6.292;2024-02-26T10:14:08;12.10;60.30
44537;DHT22;30245;51.966;6.292;2024-02-26T10:16:34;12.10;60.30
44537;DHT22;30245;51.966;6.292;2024-02-26T10:19:00;12.10;60.30
44537;DHT22;30245;51.966;6.292;2024-02-26T10:21:26;12.10;60.60
44537;DHT22;30245;51.966;6.292;2024-02-26T10:23:52;12.00;60.60
44537;DHT22;30245;51.966;6.292;2024-02-26T10:26:19;12.10;60.60
44537;DHT22;30245;51.966;6.292;2024-02-26T10:28:45;12.00;60.70
44537;DHT22;30245;51.966;6.292;2024-02-26T10:31:13;12.00;60.80
44537;DHT22;30245;51.966;6.292;2024-02-26T10:33:39;12.00;60.80
44537;DHT22;30245;51.966;6.292;2024-02-26T10:36:06;12.00;60.80
44537;DHT22;30245;51.966;6.292;2024-02-26T10:38:33;12.00;60.90
44537;DHT22;30245;51.966;6.292;2024-02-26T10:40:59;12.00;61.00
44537;DHT22;30245;51.966;6.292;2024-02-26T10:43:28;12.00;60.80
44537;DHT22;30245;51.966;6.292;2024-02-26T10:45:57;12.00;60.70
44537;DHT22;30245;51.966;6.292;2024-02-26T10:48:22;12.10;60.70
44537;DHT22;30245;51.966;6.292;2024-02-26T10:50:48;12.10;60.70
44537;DHT22;30245;51.966;6.292;2024-02-26T10:53:17;12.10;60.70
44537;DHT22;30245;51.966;6.292;2024-02-26T10:55:55;12.10;60.70
44537;DHT22;30245;51.966;6.292;2024-02-26T10:58:22;12.10;60.70
44537;DHT22;30245;51.966;6.292;2024-02-26T11:00:51;12.10;60.70
44537;DHT22;30245;51.966;6.292;2024-02-26T11:03:18;12.20;60.50
44537;DHT22;30245;51.966;6.292;2024-02-26T11:05:50;12.10;60.60
44537;DHT22;30245;51.966;6.292;2024-02-26T11:08:19;12.10;60.70
44537;DHT22;30245;51.966;6.292;2024-02-26T11:10:47;12.20;60.60
44537;DHT22;30245;51.966;6.292;2024-02-26T11:13:15;12.20;60.60
44537;DHT22;30245;51.966;6.292;2024-02-26T11:15:43;12.20;60.60
44537;DHT22;30245;51.966;6.292;2024-02-26T11:18:09;12.10;60.70
44537;DHT22;30245;51.966;6.292;2024-02-26T11:20:38;12.10;60.60
44537;DHT22;30245;51.966;6.292;2024-02-26T11:23:04;12.10;60.60
44537;DHT22;30245;51.966;6.292;2024-02-26T11:25:30;12.10;60.60
44537;DHT22;30245;51.966;6.292;2024-02-26T11:28:01;12.10;60.60
44537;DHT22;30245;51.966;6.292;2024-02-26T11:30:32;12.10;60.70
44537;DHT22;30245;51.966;6.292;2024-02-26T11:32:59;12.10;60.70
44537;DHT22;30245;51.966;6.292;2024-02-26T11:35:26;12.10;60.80
44537;DHT22;30245;51.966;6.292;2024-02-26T11:37:55;12.00;61.00
44537;DHT22;30245;51.966;6.292;2024-02-26T11:40:24;12.00;61.00
44537;DHT22;30245;51.966;6.292;2024-02-26T11:42:50;12.10;61.00
44537;DHT22;30245;51.966;6.292;2024-02-26T11:48:03;12.10;60.90
44537;DHT22;30245;51.966;6.292;2024-02-26T11:50:36;12.10;60.80
44537;DHT22;30245;51.966;6.292;2024-02-26T11:55:45;12.20;60.80
44537;DHT22;30245;51.966;6.292;2024-02-26T11:58:11;12.20;60.80
44537;DHT22;30245;51.966;6.292;2024-02-26T12:00:36;12.20;60.80
44537;DHT22;30245;51.966;6.292;2024-02-26T12:03:02;12.20;60.90
44537;DHT22;30245;51.966;6.292;2024-02-26T12:05:31;12.20;60.90
44537;DHT22;30245;51.966;6.292;2024-02-26T12:08:03;12.20;61.40
44537;DHT22;30245;51.966;6.292;2024-02-26T12:10:38;12.20;60.70
44537;DHT22;30245;51.966;6.292;2024-02-26T12:13:11;12.20;60.90
44537;DHT22;30245;51.966;6.292;2024-02-26T12:15:59;12.20;60.90
44537;DHT22;30245;51.966;6.292;2024-02-26T12:18:24;12.10;61.00
44537;DHT22;30245;51.966;6.292;2024-02-26T12:21:03;12.10;61.10
44537;DHT22;30245;51.966;6.292;2024-02-26T12:23:29;12.20;61.00
44537;DHT22;30245;51.966;6.292;2024-02-26T12:26:02;12.20;60.90
44537;DHT22;30245;51.966;6.292;2024-02-26T12:28:31;12.20;60.80
44537;DHT22;30245;51.966;6.292;2024-02-26T12:30:57;12.30;60.80
44537;DHT22;30245;51.966;6.292;2024-02-26T12:33:25;12.30;60.60
44537;DHT22;30245;51.966;6.292;2024-02-26T12:35:52;12.30;60.50
44537;DHT22;30245;51.966;6.292;2024-02-26T12:38:18;12.30;60.40
44537;DHT22;30245;51.966;6.292;2024-02-26T12:40:45;12.30;60.60
44537;DHT22;30245;51.966;6.292;2024-02-26T12:43:10;12.30;60.90
44537;DHT22;30245;51.966;6.292;2024-02-26T12:45:40;12.30;60.70
44537;DHT22;30245;51.966;6.292;2024-02-26T12:48:06;12.30;60.60
44537;DHT22;30245;51.966;6.292;2024-02-26T12:50:32;12.30;60.60
44537;DHT22;30245;51.966;6.292;2024-02-26T12:52:59;12.30;60.80
44537;DHT22;30245;51.966;6.292;2024-02-26T12:55:24;12.30;60.70
44537;DHT22;30245;51.966;6.292;2024-02-26T12:57:52;12.30;60.60
44537;DHT22;30245;51.966;6.292;2024-02-26T13:00:22;12.30;60.60
44537;DHT22;30245;51.966;6.292;2024-02-26T13:02:50;12.40;60.60
44537;DHT22;30245;51.966;6.292;2024-02-26T13:05:16;12.40;60.50
44537;DHT22;30245;51.966;6.292;2024-02-26T13:07:46;12.40;60.40
44537;DHT22;30245;51.966;6.292;2024-02-26T13:10:15;12.40;60.50
44537;DHT22;30245;51.966;6.292;2024-02-26T13:12:44;12.40;60.60
44537;DHT22;30245;51.966;6.292;2024-02-26T13:15:15;12.40;60.70
44537;DHT22;30245;51.966;6.292;2024-02-26T13:17:41;12.40;60.80
44537;DHT22;30245;51.966;6.292;2024-02-26T13:20:08;12.40;60.80
44537;DHT22;30245;51.966;6.292;2024-02-26T13:22:35;12.50;60.80
44537;DHT22;30245;51.966;6.292;2024-02-26T13:25:01;12.50;60.50
44537;DHT22;30245;51.966;6.292;2024-02-26T13:27:28;12.60;60.20
44537;DHT22;30245;51.966;6.292;2024-02-26T13:32:32;12.50;60.30
44537;DHT22;30245;51.966;6.292;2024-02-26T13:35:11;12.60;60.30
44537;DHT22;30245;51.966;6.292;2024-02-26T13:37:38;12.60;60.30
44537;DHT22;30245;51.966;6.292;2024-02-26T13:40:08;12.70;60.30
44537;DHT22;30245;51.966;6.292;2024-02-26T13:42:34;12.60;60.20
44537;DHT22;30245;51.966;6.292;2024-02-26T13:45:00;12.70;60.20
44537;DHT22;30245;51.966;6.292;2024-02-26T13:47:26;12.60;60.30
44537;DHT22;30245;51.966;6.292;2024-02-26T13:49:51;12.70;60.50
44537;DHT22;30245;51.966;6.292;2024-02-26T13:52:17;12.70;60.50
44537;DHT22;30245;51.966;6.292;2024-02-26T13:54:43;12.70;60.40
44537;DHT22;30245;51.966;6.292;2024-02-26T13:57:08;12.80;61.20
44537;DHT22;30245;51.966;6.292;2024-02-26T13:59:34;12.70;60.30
44537;DHT22;30245;51.966;6.292;2024-02-26T14:02:00;12.80;60.30
44537;DHT22;30245;51.966;6.292;2024-02-26T14:04:25;12.80;60.20
44537;DHT22;30245;51.966;6.292;2024-02-26T14:06:51;12.80;60.20
44537;DHT22;30245;51.966;6.292;2024-02-26T14:09:17;12.70;60.20
44537;DHT22;30245;51.966;6.292;2024-02-26T14:11:47;12.70;60.30
44537;DHT22;30245;51.966;6.292;2024-02-26T14:14:13;12.60;60.30
44537;DHT22;30245;51.966;6.292;2024-02-26T14:16:38;12.70;60.40
44537;DHT22;30245;51.966;6.292;2024-02-26T14:19:04;12.70;60.50
44537;DHT22;30245;51.966;6.292;2024-02-26T14:21:29;12.70;60.50
44537;DHT22;30245;51.966;6.292;2024-02-26T14:23:55;12.70;60.50
44537;DHT22;30245;51.966;6.292;2024-02-26T14:26:22;12.70;60.50
44537;DHT22;30245;51.966;6.292;2024-02-26T14:28:48;12.70;60.50
44537;DHT22;30245;51.966;6.292;2024-02-26T14:31:17;12.70;60.50
44537;DHT22;30245;51.966;6.292;2024-02-26T14:33:43;12.70;60.50
44537;DHT22;30245;51.966;6.292;2024-02-26T14:36:08;12.70;60.60
44537;DHT22;30245;51.966;6.292;2024-02-26T14:38:34;12.70;60.60
44537;DHT22;30245;51.966;6.292;2024-02-26T14:41:00;12.80;60.50
44537;DHT22;30245;51.966;6.292;2024-02-26T14:43:25;12.80;60.30
44537;DHT22;30245;51.966;6.292;2024-02-26T14:45:51;12.80;60.30
44537;DHT22;30245;51.966;6.292;2024-02-26T14:48:16;12.80;60.30
44537;DHT22;30245;51.966;6.292;2024-02-26T14:50:42;12.80;60.20
44537;DHT22;30245;51.966;6.292;2024-02-26T14:53:07;12.80;60.20
44537;DHT22;30245;51.966;6.292;2024-02-26T14:55:33;12.80;60.20
44537;DHT22;30245;51.966;6.292;2024-02-26T14:57:59;12.80;60.30
44537;DHT22;30245;51.966;6.292;2024-02-26T15:00:25;12.70;60.30
44537;DHT22;30245;51.966;6.292;2024-02-26T15:02:50;12.80;60.30
44537;DHT22;30245;51.966;6.292;2024-02-26T15:05:17;12.70;60.30
44537;DHT22;30245;51.966;6.292;2024-02-26T15:07:45;12.80;60.30
44537;DHT22;30245;51.966;6.292;2024-02-26T15:10:10;12.80;60.20
44537;DHT22;30245;51.966;6.292;2024-02-26T15:12:36;12.80;60.10
44537;DHT22;30245;51.966;6.292;2024-02-26T15:15:01;12.80;60.10
44537;DHT22;30245;51.966;6.292;2024-02-26T15:17:27;12.70;60.10
44537;DHT22;30245;51.966;6.292;2024-02-26T15:19:53;12.70;60.20
44537;DHT22;30245;51.966;6.292;2024-02-26T15:22:19;12.70;60.10
44537;DHT22;30245;51.966;6.292;2024-02-26T15:24:44;12.70;60.20
44537;DHT22;30245;51.966;6.292;2024-02-26T15:27:12;12.70;60.30
44537;DHT22;30245;51.966;6.292;2024-02-26T15:29:37;12.70;60.20
44537;DHT22;30245;51.966;6.292;2024-02-26T15:32:05;12.70;60.20
44537;DHT22;30245;51.966;6.292;2024-02-26T15:34:30;12.70;60.20